Time;durP1;ratioP1;P1;durP2;ratioP2;P2;SDS_P1;SDS_P2;PMS_P1;PMS_P2;Temp;Humidity;BMP_temperature;BMP_pressure;BME280_temperature;BME280_humidity;BME280_pressure;Samples;Min_cycle;Max_cycle;Signal;HPM_P1;HPM_P2
2020/12/09 00:00:43;;;;;;;11.77;9.15;;;9.10;70.10;;;;;;4979868;28;20045;-72
2020/12/09 00:03:08;;;;;;;10.98;8.27;;;9.00;70.00;;;;;;4981167;28;20034;-72
2020/12/09 00:05:34;;;;;;;14.23;9.00;;;9.10;70.10;;;;;;4978367;28;20030;-73
2020/12/09 00:07:59;;;;;;;10.95;8.02;;;9.00;70.00;;;;;;4979162;28;20049;-73
2020/12/09 00:10:25;;;;;;;12.02;8.55;;;9.10;70.00;;;;;;4980640;28;20030;-73
2020/12/09 00:12:50;;;;;;;17.13;12.52;;;9.00;70.00;;;;;;4980664;28;20125;-72
2020/12/09 00:15:17;;;;;;;12.85;9.50;;;9.00;69.80;;;;;;4981466;28;20034;-73
2020/12/09 00:17:42;;;;;;;11.73;9.45;;;9.10;69.70;;;;;;4982045;28;20059;-73
2020/12/09 00:20:08;;;;;;;12.80;9.93;;;9.00;69.70;;;;;;4979515;28;20046;-73
2020/12/09 00:22:35;;;;;;;14.55;10.07;;;9.10;69.70;;;;;;4979047;28;20026;-73
2020/12/09 00:25:01;;;;;;;12.93;10.20;;;9.00;69.70;;;;;;4979608;28;20023;-73
2020/12/09 00:27:27;;;;;;;14.70;10.13;;;9.10;69.70;;;;;;4979920;28;20126;-73
2020/12/09 00:29:52;;;;;;;14.13;10.23;;;9.00;69.70;;;;;;4979253;28;20118;-73
2020/12/09 00:32:18;;;;;;;11.57;8.90;;;9.10;69.80;;;;;;4983463;28;20445;-72
2020/12/09 00:34:43;;;;;;;12.80;7.97;;;9.00;69.90;;;;;;4977840;28;20073;-73
2020/12/09 00:37:09;;;;;;;12.82;10.25;;;9.00;69.80;;;;;;4981787;28;20086;-73
2020/12/09 00:39:34;;;;;;;12.15;9.32;;;9.00;69.80;;;;;;4978621;28;20054;-73
2020/12/09 00:42:00;;;;;;;12.65;9.57;;;9.00;69.90;;;;;;4982019;28;20485;-73
2020/12/09 00:44:26;;;;;;;14.57;10.43;;;9.00;69.90;;;;;;4976643;28;20493;-73
2020/12/09 00:46:51;;;;;;;13.02;9.40;;;9.00;69.90;;;;;;4980283;28;20054;-73
2020/12/09 00:49:17;;;;;;;12.10;9.18;;;9.00;69.80;;;;;;4979895;28;20030;-73
2020/12/09 00:51:42;;;;;;;14.80;10.35;;;9.00;69.80;;;;;;4979065;28;20031;-73
2020/12/09 00:54:08;;;;;;;15.32;10.20;;;9.00;69.80;;;;;;4980916;28;20489;-73
2020/12/09 00:56:33;;;;;;;15.82;11.20;;;9.00;69.70;;;;;;4980992;28;20034;-73
2020/12/09 00:58:59;;;;;;;14.82;10.52;;;9.00;69.70;;;;;;4976411;28;20080;-73
2020/12/09 01:01:24;;;;;;;13.07;9.63;;;8.90;69.60;;;;;;4978616;28;20039;-73
2020/12/09 01:03:50;;;;;;;15.30;11.23;;;9.00;69.70;;;;;;4978240;28;20049;-73
2020/12/09 01:06:15;;;;;;;15.50;11.70;;;8.90;69.50;;;;;;4977894;28;20046;-73
2020/12/09 01:08:41;;;;;;;13.18;10.18;;;8.90;69.40;;;;;;4976990;28;20039;-74
2020/12/09 01:11:06;;;;;;;14.48;11.10;;;9.00;69.40;;;;;;4984189;28;20031;-74
2020/12/09 01:13:33;;;;;;;15.00;10.70;;;8.90;69.30;;;;;;4975502;28;20033;-73
2020/12/09 01:15:59;;;;;;;11.27;9.23;;;8.90;69.30;;;;;;4982441;28;20208;-73
2020/12/09 01:18:24;;;;;;;18.13;12.52;;;8.80;69.30;;;;;;4981300;28;20110;-73
2020/12/09 01:20:50;;;;;;;15.27;11.13;;;8.90;69.30;;;;;;4980055;28;20038;-74
2020/12/09 01:23:16;;;;;;;15.65;10.88;;;8.80;69.30;;;;;;4979695;28;20034;-73
2020/12/09 01:25:41;;;;;;;14.27;10.52;;;8.80;69.30;;;;;;4979760;28;20045;-74
2020/12/09 01:28:07;;;;;;;16.33;11.65;;;8.70;69.30;;;;;;4981035;28;20528;-73
2020/12/09 01:30:33;;;;;;;16.25;11.48;;;8.70;69.30;;;;;;4979118;28;20398;-73
2020/12/09 01:32:59;;;;;;;15.35;11.18;;;8.70;69.30;;;;;;4977384;28;20045;-73
2020/12/09 01:35:25;;;;;;;18.13;13.27;;;8.70;69.20;;;;;;4979552;28;20409;-73
2020/12/09 01:37:51;;;;;;;15.95;9.98;;;8.70;69.20;;;;;;4981120;28;20101;-73
2020/12/09 01:40:17;;;;;;;15.45;10.88;;;8.60;69.20;;;;;;4977907;28;20038;-73
2020/12/09 01:42:43;;;;;;;14.00;10.23;;;8.60;69.20;;;;;;4977713;28;20038;-74
2020/12/09 01:45:08;;;;;;;18.33;12.95;;;8.60;69.30;;;;;;4981432;28;20085;-73
2020/12/09 01:47:34;;;;;;;14.05;9.15;;;8.50;69.10;;;;;;4981077;28;20852;-73
2020/12/09 01:50:00;;;;;;;14.40;10.95;;;8.50;69.10;;;;;;4978958;28;20109;-73
2020/12/09 01:52:27;;;;;;;14.82;10.75;;;8.40;69.10;;;;;;4977716;28;20677;-73
2020/12/09 01:54:53;;;;;;;13.77;10.10;;;8.40;69.10;;;;;;4978059;28;20077;-74
2020/12/09 01:57:19;;;;;;;16.77;11.80;;;8.40;69.20;;;;;;4973483;28;20034;-73
2020/12/09 01:59:44;;;;;;;13.23;9.75;;;8.40;69.30;;;;;;4979333;28;20125;-73
2020/12/09 02:02:10;;;;;;;13.98;9.70;;;8.40;69.30;;;;;;4977272;28;20406;-73
2020/12/09 02:04:36;;;;;;;12.20;8.57;;;8.30;69.30;;;;;;4977162;28;20077;-73
2020/12/09 02:07:02;;;;;;;14.90;10.20;;;8.40;69.40;;;;;;4965775;28;20409;-73
2020/12/09 02:09:28;;;;;;;11.05;7.70;;;8.30;69.40;;;;;;4980673;28;20041;-73
2020/12/09 02:11:55;;;;;;;13.13;9.02;;;8.30;69.50;;;;;;4977862;28;20498;-73
2020/12/09 02:14:21;;;;;;;15.65;10.05;;;8.30;69.50;;;;;;4978562;28;20494;-73
2020/12/09 02:16:55;;;;;;;12.13;8.95;;;8.30;69.50;;;;;;4977652;28;20033;-73
2020/12/09 02:19:22;;;;;;;11.23;9.07;;;8.40;69.50;;;;;;4973740;28;20525;-74
2020/12/09 02:21:48;;;;;;;12.60;9.10;;;8.20;69.40;;;;;;4981000;28;20057;-73
2020/12/09 02:24:14;;;;;;;11.30;8.48;;;8.30;69.50;;;;;;4978149;28;20138;-73
2020/12/09 02:26:47;;;;;;;14.80;10.13;;;8.20;69.50;;;;;;4976703;28;20494;-73
2020/12/09 02:29:13;;;;;;;16.60;11.27;;;8.20;69.50;;;;;;4974720;28;20042;-73
2020/12/09 02:31:39;;;;;;;16.70;12.20;;;8.20;69.50;;;;;;4978083;28;20085;-73
2020/12/09 02:34:05;;;;;;;14.77;11.25;;;8.20;69.60;;;;;;4979437;28;20045;-73
2020/12/09 02:36:31;;;;;;;15.00;10.38;;;8.20;69.70;;;;;;4977235;28;20030;-73
2020/12/09 02:38:57;;;;;;;14.02;9.52;;;8.20;69.70;;;;;;4979430;28;20034;-73
2020/12/09 02:41:22;;;;;;;11.77;8.90;;;8.20;69.70;;;;;;4981081;28;20034;-72
2020/12/09 02:43:48;;;;;;;13.63;9.93;;;8.20;69.80;;;;;;4977991;28;20129;-73
2020/12/09 02:46:13;;;;;;;13.07;8.93;;;8.10;69.60;;;;;;4981236;28;20042;-73
2020/12/09 02:48:39;;;;;;;11.45;8.80;;;8.20;69.60;;;;;;4981887;28;20104;-73
2020/12/09 02:51:05;;;;;;;12.27;8.70;;;8.10;69.50;;;;;;4986614;28;20026;-74
2020/12/09 02:53:30;;;;;;;12.32;8.73;;;8.20;69.60;;;;;;4986596;28;20588;-73
2020/12/09 02:55:56;;;;;;;12.70;8.52;;;8.10;69.60;;;;;;4986198;28;20034;-73
2020/12/09 02:58:21;;;;;;;10.80;8.02;;;8.10;69.60;;;;;;4985185;28;20034;-73
2020/12/09 03:00:47;;;;;;;11.77;8.07;;;8.10;69.60;;;;;;4982764;28;20074;-72
2020/12/09 03:03:13;;;;;;;12.35;9.55;;;8.10;69.60;;;;;;4984366;28;20088;-73
2020/12/09 03:05:38;;;;;;;13.50;9.35;;;8.10;69.70;;;;;;4986108;28;20076;-73
2020/12/09 03:08:04;;;;;;;12.98;8.55;;;8.10;69.70;;;;;;4986259;28;20046;-73
2020/12/09 03:10:29;;;;;;;11.70;8.35;;;8.10;69.70;;;;;;4987418;28;20042;-73
2020/12/09 03:12:55;;;;;;;13.10;9.50;;;8.10;69.70;;;;;;4986304;28;20031;-74
2020/12/09 03:15:20;;;;;;;10.85;8.30;;;8.10;69.70;;;;;;4985841;28;20054;-73
2020/12/09 03:17:46;;;;;;;11.68;8.18;;;8.10;69.60;;;;;;4988677;28;20030;-73
2020/12/09 03:20:11;;;;;;;11.05;7.47;;;8.10;69.60;;;;;;4984239;28;20509;-73
2020/12/09 03:22:37;;;;;;;10.85;8.00;;;8.10;69.60;;;;;;4983153;28;20042;-73
2020/12/09 03:25:03;;;;;;;11.70;8.02;;;8.10;69.60;;;;;;4983940;28;20026;-74
2020/12/09 03:27:28;;;;;;;11.13;7.80;;;8.00;69.50;;;;;;4988579;28;20137;-73
2020/12/09 03:29:53;;;;;;;11.68;8.75;;;8.10;69.60;;;;;;4964080;28;20035;-73
2020/12/09 03:32:19;;;;;;;11.63;8.63;;;8.10;69.60;;;;;;4985609;28;20057;-73
2020/12/09 03:34:45;;;;;;;13.23;8.60;;;8.10;69.60;;;;;;4986537;28;20041;-74
2020/12/09 03:37:10;;;;;;;16.38;11.30;;;8.10;69.60;;;;;;4985182;28;20022;-74
2020/12/09 03:39:35;;;;;;;16.00;11.32;;;8.00;69.50;;;;;;4985309;28;20073;-74
2020/12/09 03:42:01;;;;;;;12.70;9.93;;;8.00;69.50;;;;;;4977099;28;20046;-74
2020/12/09 03:44:27;;;;;;;14.40;10.25;;;8.00;69.50;;;;;;4980730;28;20030;-73
2020/12/09 03:46:56;;;;;;;8.82;7.03;;;8.00;69.50;;;;;;4985391;28;20027;-73
2020/12/09 03:49:25;;;;;;;9.85;7.65;;;8.00;69.60;;;;;;4982835;28;20030;-73
2020/12/09 03:51:50;;;;;;;11.57;8.13;;;8.00;69.70;;;;;;4986174;28;20050;-73
2020/12/09 03:54:16;;;;;;;11.73;8.60;;;8.00;69.70;;;;;;4983585;28;20109;-73
2020/12/09 03:56:41;;;;;;;11.95;8.68;;;8.00;69.70;;;;;;4980395;28;20510;-74
2020/12/09 03:59:07;;;;;;;12.55;9.05;;;8.00;69.70;;;;;;4986399;28;20033;-73
2020/12/09 04:01:32;;;;;;;13.32;8.88;;;8.00;69.60;;;;;;4984588;28;20589;-73
2020/12/09 04:03:59;;;;;;;14.77;9.27;;;8.00;69.60;;;;;;4984570;28;20042;-73
2020/12/09 04:06:24;;;;;;;14.90;9.60;;;8.00;69.60;;;;;;4983824;28;20081;-73
2020/12/09 04:08:50;;;;;;;14.35;9.63;;;7.90;69.50;;;;;;4984319;28;20038;-74
2020/12/09 04:11:15;;;;;;;14.73;10.02;;;8.00;69.50;;;;;;4983866;28;20541;-74
2020/12/09 04:13:41;;;;;;;12.57;8.68;;;8.00;69.40;;;;;;4977648;28;20039;-75
2020/12/09 04:16:06;;;;;;;11.90;8.63;;;7.90;69.40;;;;;;4969240;28;20030;-74
2020/12/09 04:18:32;;;;;;;11.10;7.75;;;7.90;69.40;;;;;;4982334;28;20035;-73
2020/12/09 04:20:57;;;;;;;12.80;8.45;;;7.90;69.40;;;;;;4984720;28;20408;-73
2020/12/09 04:23:22;;;;;;;12.20;8.55;;;7.90;69.50;;;;;;4985029;28;20113;-73
2020/12/09 04:25:48;;;;;;;11.43;8.82;;;7.90;69.50;;;;;;4984839;28;20421;-74
2020/12/09 04:28:13;;;;;;;13.27;9.02;;;7.90;69.50;;;;;;4981780;28;20400;-74
2020/12/09 04:30:39;;;;;;;14.20;9.10;;;7.80;69.40;;;;;;4986015;28;20034;-74
2020/12/09 04:33:04;;;;;;;12.20;8.38;;;7.90;69.50;;;;;;4984863;28;20112;-73
2020/12/09 04:35:30;;;;;;;11.98;8.05;;;7.90;69.40;;;;;;4983467;28;20034;-73
2020/12/09 04:37:56;;;;;;;14.93;9.20;;;7.80;69.30;;;;;;4985635;28;20061;-73
2020/12/09 04:40:26;;;;;;;11.77;8.60;;;7.80;69.30;;;;;;4982604;28;20034;-74
2020/12/09 04:43:00;;;;;;;12.98;8.95;;;7.80;69.30;;;;;;4978233;28;20065;-73
2020/12/09 04:45:29;;;;;;;14.90;9.75;;;7.80;69.30;;;;;;4981217;28;20034;-73
2020/12/09 04:48:10;;;;;;;13.13;8.35;;;7.80;69.30;;;;;;4984549;28;20040;-74
2020/12/09 04:51:15;;;;;;;12.68;8.70;;;7.80;69.30;;;;;;4980850;28;20038;-74
2020/12/09 04:53:42;;;;;;;14.15;9.32;;;7.80;69.30;;;;;;4978698;28;20045;-73
2020/12/09 04:56:09;;;;;;;14.00;9.35;;;7.80;69.30;;;;;;4984820;28;20582;-74
2020/12/09 04:58:40;;;;;;;14.13;9.63;;;7.70;69.30;;;;;;4977415;28;20234;-74
2020/12/09 05:01:08;;;;;;;15.68;9.32;;;7.70;69.40;;;;;;4981224;28;20493;-74
2020/12/09 05:03:41;;;;;;;13.77;8.50;;;7.70;69.30;;;;;;4981270;28;20041;-73
2020/12/09 05:06:08;;;;;;;12.55;8.27;;;7.70;69.40;;;;;;4984504;28;20088;-74
2020/12/09 05:08:36;;;;;;;13.38;8.30;;;7.70;69.30;;;;;;4981840;28;20453;-73
2020/12/09 05:11:06;;;;;;;12.40;7.82;;;7.70;69.40;;;;;;4985668;28;20031;-74
2020/12/09 05:13:35;;;;;;;11.60;7.72;;;7.70;69.40;;;;;;4979359;28;20041;-73
2020/12/09 05:16:02;;;;;;;12.73;7.60;;;7.70;69.40;;;;;;4983975;28;20030;-74
2020/12/09 05:18:39;;;;;;;15.57;9.45;;;7.60;69.40;;;;;;4982402;28;20030;-73
2020/12/09 05:21:20;;;;;;;15.52;9.90;;;7.60;69.40;;;;;;4983182;28;20054;-73
2020/12/09 05:24:00;;;;;;;13.43;9.38;;;7.70;69.40;;;;;;4984354;28;20121;-74
2020/12/09 05:26:34;;;;;;;16.95;11.32;;;7.60;69.40;;;;;;4980627;28;20034;-73
2020/12/09 05:29:14;;;;;;;13.40;8.45;;;7.60;69.40;;;;;;4979903;28;20023;-74
2020/12/09 05:31:56;;;;;;;13.57;9.13;;;7.60;69.50;;;;;;4981977;28;20405;-74
2020/12/09 05:34:22;;;;;;;13.23;8.93;;;7.60;69.50;;;;;;4981721;28;20781;-73
2020/12/09 05:36:48;;;;;;;18.02;10.75;;;7.60;69.50;;;;;;4983893;28;20034;-73
2020/12/09 05:39:14;;;;;;;15.90;9.68;;;7.60;69.40;;;;;;4987543;28;20042;-73
2020/12/09 05:41:40;;;;;;;13.18;9.40;;;7.60;69.30;;;;;;4981199;28;20092;-74
2020/12/09 05:44:05;;;;;;;12.02;8.30;;;7.60;69.30;;;;;;4979582;28;20517;-74
2020/12/09 05:46:31;;;;;;;10.80;7.47;;;7.50;69.90;;;;;;4982597;28;20034;-73
2020/12/09 05:48:57;;;;;;;15.57;8.93;;;7.50;69.40;;;;;;4977747;28;20132;-73
2020/12/09 05:51:23;;;;;;;12.40;8.15;;;7.50;69.40;;;;;;4984770;28;20034;-74
2020/12/09 05:53:48;;;;;;;14.90;9.02;;;7.50;69.40;;;;;;4981778;28;20030;-75
2020/12/09 05:56:16;;;;;;;13.65;8.88;;;7.50;69.40;;;;;;4979216;28;20042;-74
2020/12/09 05:58:44;;;;;;;14.32;8.65;;;7.50;69.30;;;;;;4978902;28;20472;-74
2020/12/09 06:01:13;;;;;;;12.70;7.15;;;7.50;69.20;;;;;;4982346;28;20421;-74
2020/12/09 06:03:42;;;;;;;11.25;7.82;;;7.50;69.30;;;;;;4979644;28;20065;-73
2020/12/09 06:06:13;;;;;;;11.65;8.18;;;7.50;69.30;;;;;;4984642;28;20038;-74
2020/12/09 06:08:42;;;;;;;14.75;9.35;;;7.50;69.40;;;;;;4982541;28;20045;-74
2020/12/09 06:11:08;;;;;;;17.42;10.32;;;7.40;69.20;;;;;;4984736;28;20042;-74
2020/12/09 06:13:34;;;;;;;14.07;8.70;;;7.40;69.20;;;;;;4980025;28;20041;-74
2020/12/09 06:16:05;;;;;;;12.32;7.80;;;7.40;69.30;;;;;;4982275;28;20034;-74
2020/12/09 06:18:31;;;;;;;13.60;8.77;;;7.40;69.30;;;;;;4981970;28;20035;-74
2020/12/09 06:20:58;;;;;;;12.95;8.77;;;7.40;69.40;;;;;;4983923;28;20046;-74
2020/12/09 06:23:26;;;;;;;11.63;7.47;;;7.40;69.30;;;;;;4983450;28;20061;-74
2020/12/09 06:25:51;;;;;;;15.40;8.13;;;7.40;69.40;;;;;;4985295;28;20420;-73
2020/12/09 06:28:22;;;;;;;12.60;8.20;;;7.30;69.40;;;;;;4984585;28;20050;-73
2020/12/09 06:30:49;;;;;;;12.00;8.20;;;7.30;69.40;;;;;;4987650;28;20507;-74
2020/12/09 06:33:32;;;;;;;12.52;7.97;;;7.30;69.40;;;;;;4985179;28;20035;-74
2020/12/09 06:36:20;;;;;;;12.65;8.40;;;7.30;69.50;;;;;;4981221;28;20038;-74
2020/12/09 06:39:04;;;;;;;14.02;8.88;;;7.30;69.50;;;;;;4985287;28;20416;-73
2020/12/09 06:41:33;;;;;;;15.65;8.85;;;7.30;69.40;;;;;;4984837;28;20122;-73
2020/12/09 06:44:07;;;;;;;14.13;8.50;;;7.40;69.40;;;;;;4981380;28;20444;-74
2020/12/09 06:46:38;;;;;;;15.90;9.57;;;7.30;69.40;;;;;;4989070;28;20034;-73
2020/12/09 06:49:05;;;;;;;12.48;8.32;;;7.30;69.40;;;;;;4984795;28;20105;-73
2020/12/09 06:51:38;;;;;;;12.60;8.13;;;7.30;69.40;;;;;;4984497;28;20026;-73
2020/12/09 06:54:11;;;;;;;13.05;7.80;;;7.30;69.40;;;;;;4986504;28;20401;-73
2020/12/09 06:56:36;;;;;;;13.25;7.97;;;7.30;69.40;;;;;;4988418;28;20046;-72
2020/12/09 06:59:24;;;;;;;10.90;7.25;;;7.30;69.50;;;;;;4982990;28;20092;-72
2020/12/09 07:02:04;;;;;;;11.85;8.02;;;7.30;69.50;;;;;;4985018;28;20592;-72
2020/12/09 07:04:54;;;;;;;12.07;8.27;;;7.30;69.50;;;;;;4983593;28;20070;-72
2020/12/09 07:07:34;;;;;;;13.63;9.02;;;7.30;69.50;;;;;;4988657;28;20548;-73
2020/12/09 07:10:01;;;;;;;11.57;7.17;;;7.30;69.50;;;;;;4981588;28;20041;-73
2020/12/09 07:12:27;;;;;;;12.75;8.90;;;7.30;69.50;;;;;;4982059;28;20278;-72
2020/12/09 07:14:55;;;;;;;13.68;9.00;;;7.30;69.50;;;;;;4984610;28;20023;-73
2020/12/09 07:17:22;;;;;;;14.32;9.15;;;7.30;69.50;;;;;;4985993;28;20133;-73
2020/12/09 07:19:49;;;;;;;12.40;7.90;;;7.30;69.50;;;;;;4984163;28;20026;-74
2020/12/09 07:22:14;;;;;;;14.45;7.15;;;7.30;69.50;;;;;;4984848;28;20027;-73
2020/12/09 07:24:40;;;;;;;11.15;7.32;;;7.30;69.60;;;;;;4986360;28;20035;-73
2020/12/09 07:27:09;;;;;;;13.32;7.22;;;7.30;69.60;;;;;;4984029;28;20031;-73
2020/12/09 07:29:36;;;;;;;11.48;8.05;;;7.30;69.60;;;;;;4983529;28;20053;-74
2020/12/09 07:32:02;;;;;;;12.05;7.57;;;7.30;69.60;;;;;;4983998;28;20026;-74
2020/12/09 07:34:28;;;;;;;10.60;6.97;;;7.40;69.70;;;;;;4982750;28;20034;-73
2020/12/09 07:36:54;;;;;;;10.80;7.22;;;7.30;69.60;;;;;;4985024;28;20026;-73
2020/12/09 07:39:26;;;;;;;11.13;6.88;;;7.40;69.70;;;;;;4986879;28;20023;-74
2020/12/09 07:41:59;;;;;;;13.15;8.25;;;7.30;69.60;;;;;;4984345;28;20030;-73
2020/12/09 07:44:26;;;;;;;15.40;8.52;;;7.40;69.70;;;;;;4981740;28;20192;-74
2020/12/09 07:46:53;;;;;;;12.50;7.93;;;7.30;70.10;;;;;;4975732;28;20038;-73
2020/12/09 07:49:18;;;;;;;15.00;9.40;;;7.40;69.70;;;;;;4985281;28;20498;-73
2020/12/09 07:51:44;;;;;;;14.23;9.02;;;7.30;69.60;;;;;;4988629;28;20035;-73
2020/12/09 07:54:10;;;;;;;14.38;8.07;;;7.40;69.70;;;;;;4983597;28;20030;-73
2020/12/09 07:56:36;;;;;;;12.23;7.43;;;7.40;69.70;;;;;;4985721;28;20031;-73
2020/12/09 07:59:02;;;;;;;15.63;9.38;;;7.40;69.80;;;;;;4983900;28;20035;-74
2020/12/09 08:01:28;;;;;;;13.23;7.85;;;7.40;69.80;;;;;;4990179;28;20034;-72
2020/12/09 08:03:53;;;;;;;14.98;9.48;;;7.40;69.90;;;;;;4982971;28;20073;-74
2020/12/09 08:06:22;;;;;;;15.27;9.82;;;7.40;69.90;;;;;;4986740;28;20030;-74
2020/12/09 08:08:50;;;;;;;12.88;7.90;;;7.50;69.90;;;;;;4985567;28;20042;-73
2020/12/09 08:11:16;;;;;;;14.85;8.90;;;7.50;69.90;;;;;;4983303;28;20084;-73
2020/12/09 08:13:41;;;;;;;13.00;7.78;;;7.60;70.00;;;;;;4984158;28;20046;-73
2020/12/09 08:16:12;;;;;;;14.85;8.05;;;7.50;70.00;;;;;;4986016;28;20039;-73
2020/12/09 08:18:42;;;;;;;15.60;8.90;;;7.50;70.60;;;;;;4983006;28;20042;-74
2020/12/09 08:21:09;;;;;;;11.25;7.68;;;7.60;70.10;;;;;;4981879;28;20042;-73
2020/12/09 08:23:41;;;;;;;14.05;8.07;;;7.60;70.00;;;;;;4980106;28;20414;-72
2020/12/09 08:26:07;;;;;;;15.07;9.75;;;7.60;70.00;;;;;;4983660;28;20412;-73
2020/12/09 08:28:33;;;;;;;13.82;8.05;;;7.60;70.00;;;;;;4981831;28;20037;-73
2020/12/09 08:30:59;;;;;;;13.65;8.10;;;7.70;70.00;;;;;;4985158;28;20038;-73
2020/12/09 08:33:27;;;;;;;13.63;8.30;;;7.70;70.00;;;;;;4980449;28;20454;-74
2020/12/09 08:35:58;;;;;;;11.52;7.60;;;7.80;70.10;;;;;;4969443;28;20035;-74
2020/12/09 08:38:27;;;;;;;11.27;7.50;;;7.70;70.60;;;;;;4982910;28;20419;-73
2020/12/09 08:40:55;;;;;;;14.55;9.00;;;7.80;70.10;;;;;;4985520;28;20038;-73
2020/12/09 08:43:29;;;;;;;16.35;8.15;;;7.80;70.00;;;;;;4980435;28;20412;-73
2020/12/09 08:45:55;;;;;;;11.35;7.40;;;7.90;70.00;;;;;;4980506;28;20039;-73
2020/12/09 08:48:21;;;;;;;14.90;8.27;;;7.80;70.00;;;;;;4983773;28;20122;-73
2020/12/09 08:50:48;;;;;;;14.07;8.90;;;7.90;70.00;;;;;;4984558;28;20568;-73
2020/12/09 08:53:14;;;;;;;15.15;8.80;;;7.90;70.00;;;;;;4986432;28;20030;-73
2020/12/09 08:55:42;;;;;;;12.73;7.55;;;7.90;70.00;;;;;;4984265;28;20515;-74
2020/12/09 08:58:10;;;;;;;11.82;7.88;;;7.90;70.00;;;;;;4980614;28;20034;-73
2020/12/09 09:00:37;;;;;;;14.63;9.25;;;8.00;70.10;;;;;;4984162;28;20442;-74
2020/12/09 09:03:10;;;;;;;19.90;10.50;;;8.00;70.00;;;;;;4981339;28;20038;-73
2020/12/09 09:05:35;;;;;;;15.40;9.40;;;8.00;69.90;;;;;;4980355;28;20116;-74
2020/12/09 09:08:01;;;;;;;15.88;9.32;;;8.00;69.80;;;;;;4983432;28;20857;-72
2020/12/09 09:10:26;;;;;;;13.85;8.55;;;8.00;69.80;;;;;;4988202;28;20030;-73
2020/12/09 09:12:52;;;;;;;14.90;9.10;;;8.10;69.80;;;;;;4984316;28;20039;-73
2020/12/09 09:15:17;;;;;;;14.68;8.75;;;8.10;69.70;;;;;;4983569;28;20026;-73
2020/12/09 09:17:43;;;;;;;15.07;9.60;;;8.10;69.80;;;;;;4981579;28;20363;-74
2020/12/09 09:20:08;;;;;;;13.27;8.63;;;8.10;69.80;;;;;;4979240;28;20038;-73
2020/12/09 09:22:34;;;;;;;12.25;7.85;;;8.10;69.80;;;;;;4982965;28;20120;-74
2020/12/09 09:25:00;;;;;;;14.10;8.35;;;8.10;70.30;;;;;;4984529;28;20053;-73
2020/12/09 09:27:26;;;;;;;19.08;9.82;;;8.10;69.70;;;;;;4984404;28;20101;-74
2020/12/09 09:29:52;;;;;;;15.32;8.68;;;8.10;69.70;;;;;;4983137;28;20507;-72
2020/12/09 09:32:17;;;;;;;17.33;9.52;;;8.20;69.80;;;;;;4981432;28;20022;-73
2020/12/09 09:34:44;;;;;;;15.27;8.73;;;8.20;69.80;;;;;;4982484;28;20041;-73
2020/12/09 09:37:09;;;;;;;14.55;8.25;;;8.20;69.80;;;;;;4984503;28;20087;-73
2020/12/09 09:39:36;;;;;;;14.77;8.38;;;8.20;69.80;;;;;;4986336;28;20030;-73
2020/12/09 09:42:05;;;;;;;11.80;8.23;;;8.10;69.70;;;;;;4984138;28;20501;-73
2020/12/09 09:44:30;;;;;;;16.85;9.32;;;8.20;69.70;;;;;;4975237;28;20038;-73
2020/12/09 09:46:59;;;;;;;14.23;8.05;;;8.20;69.60;;;;;;4982938;28;20394;-73
2020/12/09 09:49:25;;;;;;;13.05;8.80;;;8.20;69.60;;;;;;4977818;28;20038;-74
2020/12/09 09:51:52;;;;;;;14.85;8.80;;;8.20;69.50;;;;;;4979644;28;20034;-73
2020/12/09 09:54:21;;;;;;;14.70;8.30;;;8.20;69.50;;;;;;4981863;28;20037;-74
2020/12/09 09:56:49;;;;;;;14.82;8.82;;;8.20;69.50;;;;;;4976418;28;20070;-75
2020/12/09 09:59:15;;;;;;;19.77;10.40;;;8.20;69.50;;;;;;4979368;28;20127;-72
2020/12/09 10:01:40;;;;;;;13.70;9.07;;;8.20;69.50;;;;;;4984142;28;20062;-73
2020/12/09 10:04:08;;;;;;;15.13;9.05;;;8.20;69.60;;;;;;4977358;28;20464;-72
2020/12/09 10:06:36;;;;;;;15.50;9.15;;;8.20;69.60;;;;;;4985230;28;20424;-72
2020/12/09 10:09:04;;;;;;;17.80;9.63;;;8.20;69.60;;;;;;4980324;28;20048;-72
2020/12/09 10:11:30;;;;;;;12.95;7.97;;;8.30;69.70;;;;;;4977939;28;20089;-73
2020/12/09 10:13:59;;;;;;;15.48;8.68;;;8.30;69.70;;;;;;4984420;28;20037;-72
2020/12/09 10:16:26;;;;;;;14.25;9.27;;;8.20;69.70;;;;;;4984254;28;20037;-72
2020/12/09 10:18:52;;;;;;;16.27;9.05;;;8.30;69.80;;;;;;4961074;28;20061;-71
2020/12/09 10:21:22;;;;;;;16.10;8.90;;;8.20;69.80;;;;;;4983317;28;20061;-73
2020/12/09 10:23:47;;;;;;;17.30;9.75;;;8.30;69.80;;;;;;4981614;28;20117;-73
2020/12/09 10:26:13;;;;;;;14.82;8.70;;;8.30;69.90;;;;;;4981101;28;20614;-71
2020/12/09 10:28:38;;;;;;;14.15;8.63;;;8.30;69.90;;;;;;4981845;28;20042;-72
2020/12/09 10:31:04;;;;;;;15.77;9.13;;;8.30;69.90;;;;;;4982392;28;20572;-73
2020/12/09 10:33:29;;;;;;;12.45;8.30;;;8.30;69.90;;;;;;4980305;28;20041;-72
2020/12/09 10:35:54;;;;;;;13.82;8.65;;;8.40;70.00;;;;;;4982370;28;20041;-72
2020/12/09 10:38:20;;;;;;;14.43;8.55;;;8.40;70.00;;;;;;4981622;28;20035;-73
2020/12/09 10:40:45;;;;;;;12.00;8.45;;;8.40;70.00;;;;;;4984289;28;20588;-73
2020/12/09 10:43:12;;;;;;;15.63;9.10;;;8.40;70.00;;;;;;4979425;28;20048;-73
2020/12/09 10:45:38;;;;;;;14.10;9.20;;;8.50;70.00;;;;;;4982691;28;20030;-72
2020/12/09 10:48:03;;;;;;;14.80;8.95;;;8.50;70.00;;;;;;4984279;28;20031;-73
2020/12/09 10:50:29;;;;;;;15.95;9.52;;;8.50;69.80;;;;;;4979144;28;20089;-72
2020/12/09 10:52:55;;;;;;;14.35;8.98;;;8.60;70.30;;;;;;4981829;28;20033;-73
2020/12/09 10:55:23;;;;;;;15.35;9.57;;;8.50;69.60;;;;;;4984399;28;20054;-75
2020/12/09 10:57:48;;;;;;;14.60;9.73;;;8.60;69.60;;;;;;4981239;28;20452;-74
2020/12/09 11:00:14;;;;;;;14.85;9.85;;;8.60;69.50;;;;;;4986683;28;20035;-74
2020/12/09 11:02:39;;;;;;;16.70;9.20;;;8.60;69.50;;;;;;4975024;28;20413;-74
2020/12/09 11:05:05;;;;;;;13.68;8.95;;;8.60;69.50;;;;;;4979035;28;20038;-74
2020/12/09 11:07:30;;;;;;;15.23;9.25;;;8.60;69.50;;;;;;4980205;28;20460;-74
2020/12/09 11:09:56;;;;;;;13.35;8.55;;;8.60;69.50;;;;;;4983332;28;20104;-74
2020/12/09 11:12:21;;;;;;;13.80;8.80;;;8.60;69.50;;;;;;4982059;28;20490;-74
2020/12/09 11:14:49;;;;;;;16.20;8.95;;;8.60;69.50;;;;;;4984818;28;20037;-74
2020/12/09 11:17:14;;;;;;;16.35;9.80;;;8.60;69.50;;;;;;4988046;28;20046;-75
2020/12/09 11:19:40;;;;;;;16.48;10.07;;;8.70;69.50;;;;;;4983226;28;20051;-74
2020/12/09 11:22:05;;;;;;;13.63;9.48;;;8.60;69.40;;;;;;4984247;28;20413;-74
2020/12/09 11:24:31;;;;;;;15.77;9.75;;;8.60;69.40;;;;;;4984010;28;20035;-73
2020/12/09 11:26:56;;;;;;;14.32;9.43;;;8.60;69.50;;;;;;4977539;28;20105;-74
2020/12/09 11:29:23;;;;;;;16.65;9.95;;;8.70;69.50;;;;;;4985488;28;20073;-73
2020/12/09 11:31:48;;;;;;;14.82;9.88;;;8.70;69.50;;;;;;4988037;28;20038;-73
2020/12/09 11:34:14;;;;;;;15.90;9.77;;;8.70;69.50;;;;;;4984496;28;20038;-73
2020/12/09 11:36:39;;;;;;;13.35;8.65;;;8.60;69.40;;;;;;4984441;28;20045;-72
2020/12/09 11:39:05;;;;;;;15.32;10.10;;;8.60;69.30;;;;;;4984019;28;20084;-73
2020/12/09 11:41:33;;;;;;;14.98;9.38;;;8.70;69.30;;;;;;4985087;28;20494;-74
2020/12/09 11:43:59;;;;;;;13.68;8.80;;;8.60;69.20;;;;;;4982266;28;20038;-74
2020/12/09 11:46:26;;;;;;;16.30;8.80;;;8.60;69.20;;;;;;4987916;28;20034;-73
2020/12/09 11:48:52;;;;;;;16.50;9.82;;;8.60;69.30;;;;;;4975932;28;20038;-74
2020/12/09 11:51:18;;;;;;;14.98;9.73;;;8.70;69.30;;;;;;4986399;28;20397;-73
2020/12/09 11:53:44;;;;;;;13.73;9.52;;;8.60;69.30;;;;;;4984661;28;20042;-73
2020/12/09 11:56:09;;;;;;;14.95;8.88;;;8.70;69.40;;;;;;4983524;28;20042;-73
2020/12/09 11:58:35;;;;;;;14.52;9.13;;;8.70;69.40;;;;;;4989973;28;20030;-74
2020/12/09 12:01:01;;;;;;;14.68;9.02;;;8.60;69.30;;;;;;4987003;28;20034;-73
2020/12/09 12:03:28;;;;;;;15.07;8.98;;;8.70;69.40;;;;;;4982732;28;20070;-72
2020/12/09 12:05:54;;;;;;;13.18;9.57;;;8.60;69.30;;;;;;4986175;28;20542;-73
2020/12/09 12:08:20;;;;;;;19.25;10.73;;;8.60;69.30;;;;;;4984931;28;20081;-73
2020/12/09 12:10:45;;;;;;;16.23;10.68;;;8.70;69.40;;;;;;4984699;28;20072;-73
2020/12/09 12:13:11;;;;;;;14.90;9.38;;;8.60;69.30;;;;;;4977506;28;20374;-73
2020/12/09 12:15:37;;;;;;;12.73;8.60;;;8.60;69.30;;;;;;4983209;28;20054;-73
2020/12/09 12:18:03;;;;;;;14.05;8.00;;;8.70;69.30;;;;;;4984652;28;20053;-72
2020/12/09 12:20:28;;;;;;;13.15;9.20;;;8.70;69.30;;;;;;4981868;28;20034;-73
2020/12/09 12:22:54;;;;;;;14.68;9.43;;;8.70;69.30;;;;;;4983681;28;20519;-73
2020/12/09 12:25:19;;;;;;;13.15;8.80;;;8.60;69.20;;;;;;4984849;28;20437;-73
2020/12/09 12:27:45;;;;;;;20.40;12.52;;;8.70;69.20;;;;;;4978525;28;20034;-74
2020/12/09 12:30:11;;;;;;;16.52;10.27;;;8.60;69.10;;;;;;4982945;28;20058;-73
2020/12/09 12:32:37;;;;;;;15.02;9.32;;;8.60;69.00;;;;;;4985661;28;20037;-72
2020/12/09 12:35:03;;;;;;;14.27;9.13;;;8.60;69.00;;;;;;4984532;28;20605;-71
2020/12/09 12:37:31;;;;;;;15.10;9.38;;;8.70;69.10;;;;;;4983438;28;20038;-72
2020/12/09 12:39:56;;;;;;;13.40;9.10;;;8.60;69.00;;;;;;4985270;28;20082;-71
2020/12/09 12:42:22;;;;;;;13.80;8.98;;;8.60;69.00;;;;;;4986065;28;20031;-72
2020/12/09 12:44:47;;;;;;;13.77;8.75;;;8.60;69.10;;;;;;4981077;28;20057;-72